createdAt,value
2022-12-29T00:01:51.083Z,1.10
2022-12-29T00:06:49.521Z,1.25
2022-12-29T00:09:19.095Z,0.65
2022-12-29T00:11:56.717Z,0.68
2022-12-29T00:14:43.898Z,0.43
2022-12-29T00:17:13.985Z,0.65
2022-12-29T00:22:45.824Z,0.60
2022-12-29T00:25:32.889Z,0.90
2022-12-29T00:28:18.217Z,0.75
2022-12-29T00:31:03.761Z,0.80
2022-12-29T00:33:52.490Z,0.40
2022-12-29T00:36:24.317Z,0.80
2022-12-29T00:39:18.646Z,0.73
2022-12-29T00:42:04.422Z,1.20
2022-12-29T00:44:32.661Z,0.65
2022-12-29T00:47:06.599Z,0.63
2022-12-29T00:49:36.309Z,0.90
2022-12-29T00:52:06.860Z,0.52
2022-12-29T00:54:41.960Z,0.40
2022-12-29T00:57:11.919Z,0.68
2022-12-29T00:59:40.671Z,0.50
2022-12-29T01:02:09.993Z,0.82
2022-12-29T01:04:40.127Z,0.73
2022-12-29T01:07:08.450Z,0.63
2022-12-29T01:09:53.869Z,0.55
2022-12-29T01:12:41.891Z,0.73
2022-12-29T01:15:15.273Z,0.32
2022-12-29T01:17:46.571Z,0.60
2022-12-29T01:20:16.461Z,0.70
2022-12-29T01:22:44.872Z,0.43
2022-12-29T01:25:13.378Z,0.75
2022-12-29T01:27:44.324Z,0.73
2022-12-29T01:30:13.559Z,0.50
2022-12-29T01:32:42.319Z,0.75
2022-12-29T01:35:12.453Z,0.63
2022-12-29T01:40:11.266Z,0.50
2022-12-29T01:42:39.767Z,0.50
2022-12-29T01:45:12.300Z,0.43
2022-12-29T01:47:44.008Z,0.63
2022-12-29T01:50:17.797Z,0.60
2022-12-29T01:52:54.414Z,0.73
2022-12-29T01:55:23.198Z,0.98
2022-12-29T01:57:55.371Z,1.65
2022-12-29T02:00:23.765Z,1.08
2022-12-29T02:02:55.541Z,1.05
2022-12-29T02:05:31.311Z,0.43
2022-12-29T02:08:03.664Z,0.63
2022-12-29T02:10:35.329Z,0.55
2022-12-29T02:13:03.660Z,0.17
2022-12-29T02:15:40.302Z,0.55
2022-12-29T02:18:21.780Z,0.25
2022-12-29T02:21:18.398Z,0.40
2022-12-29T02:24:32.902Z,0.63
2022-12-29T02:27:24.335Z,0.60
2022-12-29T02:30:10.000Z,0.82
2022-12-29T02:32:48.777Z,0.82
2022-12-29T02:35:28.184Z,0.40
2022-12-29T02:38:05.858Z,0.70
2022-12-29T02:40:43.308Z,1.13
2022-12-29T02:43:22.105Z,0.60
2022-12-29T02:45:58.006Z,0.40
2022-12-29T02:48:34.297Z,0.75
2022-12-29T02:51:09.154Z,0.57
2022-12-29T02:53:57.063Z,0.47
2022-12-29T02:56:25.533Z,0.70
2022-12-29T02:58:53.901Z,0.95
2022-12-29T03:01:38.612Z,0.80
2022-12-29T03:04:26.308Z,0.63
2022-12-29T03:07:04.709Z,0.65
2022-12-29T03:09:39.398Z,1.00
2022-12-29T03:12:17.283Z,0.95
2022-12-29T03:15:15.311Z,0.60
2022-12-29T03:17:53.915Z,1.00
2022-12-29T03:20:31.014Z,0.50
2022-12-29T03:23:03.923Z,1.15
2022-12-29T03:25:35.756Z,0.45
2022-12-29T03:28:09.274Z,0.70
2022-12-29T03:30:40.256Z,0.25
2022-12-29T03:33:13.975Z,0.68
2022-12-29T03:35:48.816Z,0.77
2022-12-29T03:38:19.711Z,0.68
2022-12-29T03:40:57.701Z,0.75
2022-12-29T03:43:27.367Z,0.82
2022-12-29T03:45:56.073Z,0.45
2022-12-29T03:48:27.047Z,0.75
2022-12-29T03:50:59.348Z,0.20
2022-12-29T03:53:27.584Z,0.90
2022-12-29T03:55:57.085Z,0.57
2022-12-29T03:58:25.470Z,0.55
2022-12-29T04:01:00.759Z,0.32
2022-12-29T04:03:29.159Z,0.60
2022-12-29T04:05:58.856Z,0.30
2022-12-29T04:08:27.042Z,0.30
2022-12-29T04:10:57.964Z,1.02
2022-12-29T04:13:26.134Z,0.82
2022-12-29T04:15:54.527Z,0.88
2022-12-29T04:18:25.299Z,0.35
2022-12-29T04:21:03.829Z,0.40
2022-12-29T04:23:35.837Z,0.93
2022-12-29T04:26:07.580Z,0.88
2022-12-29T04:28:36.029Z,0.85
2022-12-29T04:31:04.823Z,0.65
2022-12-29T04:33:33.293Z,0.43
2022-12-29T04:36:01.469Z,0.93
2022-12-29T04:38:29.847Z,0.52
2022-12-29T04:41:01.525Z,0.60
2022-12-29T04:43:29.825Z,0.60
2022-12-29T04:45:58.219Z,0.43
2022-12-29T04:48:26.407Z,0.77
2022-12-29T04:50:54.635Z,1.20
2022-12-29T04:53:22.853Z,1.20
2022-12-29T04:55:52.426Z,1.17
2022-12-29T04:58:23.361Z,0.80
2022-12-29T05:00:52.509Z,0.75
2022-12-29T05:03:21.190Z,0.73
2022-12-29T05:05:49.525Z,0.75
2022-12-29T05:08:20.858Z,1.48
2022-12-29T05:10:52.613Z,1.27
2022-12-29T05:13:22.487Z,1.15
2022-12-29T05:15:53.115Z,1.35
2022-12-29T05:18:21.894Z,1.08
2022-12-29T05:20:50.587Z,0.63
2022-12-29T05:23:19.014Z,1.67
2022-12-29T05:25:47.561Z,1.40
2022-12-29T05:28:16.137Z,1.15
2022-12-29T05:30:49.991Z,1.13
2022-12-29T05:33:18.670Z,0.77
2022-12-29T05:35:47.276Z,0.60
2022-12-29T05:38:15.498Z,0.80
2022-12-29T05:40:43.721Z,0.82
2022-12-29T05:43:11.965Z,1.38
2022-12-29T05:45:40.370Z,1.00
2022-12-29T05:48:10.040Z,1.27
2022-12-29T05:50:39.481Z,0.75
2022-12-29T05:53:07.926Z,0.70
2022-12-29T05:55:36.574Z,1.20
2022-12-29T05:58:05.294Z,0.95
2022-12-29T06:00:33.933Z,1.08
2022-12-29T06:03:02.264Z,1.25
2022-12-29T06:05:32.272Z,1.50
2022-12-29T06:08:00.360Z,1.02
2022-12-29T06:10:28.676Z,0.93
2022-12-29T06:12:56.893Z,1.73
2022-12-29T06:15:25.084Z,1.10
2022-12-29T06:17:53.477Z,0.55
2022-12-29T06:20:21.663Z,0.80
2022-12-29T06:22:51.242Z,0.90
2022-12-29T06:25:19.981Z,1.38
2022-12-29T06:27:48.073Z,1.70
2022-12-29T06:30:17.243Z,0.50
2022-12-29T06:32:46.845Z,0.95
2022-12-29T06:35:15.080Z,0.80
2022-12-29T06:37:43.201Z,1.48
2022-12-29T06:40:14.308Z,0.52
2022-12-29T06:42:42.774Z,0.77
2022-12-29T06:45:11.808Z,1.15
2022-12-29T06:47:40.170Z,0.70
2022-12-29T06:50:08.942Z,1.00
2022-12-29T06:52:37.168Z,1.38
2022-12-29T06:55:06.001Z,1.73
2022-12-29T06:57:35.604Z,1.45
2022-12-29T07:00:04.321Z,1.02
2022-12-29T07:02:33.131Z,0.80
2022-12-29T07:05:01.445Z,1.02
2022-12-29T07:07:29.845Z,0.98
2022-12-29T07:10:00.601Z,1.60
2022-12-29T07:12:28.963Z,1.33
2022-12-29T07:14:58.491Z,1.42
2022-12-29T07:17:26.751Z,0.75
2022-12-29T07:19:54.930Z,1.52
2022-12-29T07:22:23.481Z,1.17
2022-12-29T07:24:51.872Z,1.95
2022-12-29T07:27:20.217Z,1.75
2022-12-29T07:29:48.629Z,1.60
2022-12-29T07:32:18.255Z,1.30
2022-12-29T07:34:48.564Z,1.13
2022-12-29T07:37:17.816Z,0.63
2022-12-29T07:39:46.217Z,1.10
2022-12-29T07:42:14.324Z,0.65
2022-12-29T07:44:42.429Z,1.25
2022-12-29T07:47:10.580Z,0.75
2022-12-29T07:49:40.251Z,1.55
2022-12-29T07:52:09.659Z,1.05
2022-12-29T07:54:37.919Z,1.35
2022-12-29T07:57:06.972Z,1.50
2022-12-29T07:59:35.200Z,1.13
2022-12-29T08:02:03.533Z,1.05
2022-12-29T08:04:32.024Z,1.17
2022-12-29T08:07:02.083Z,1.60
2022-12-29T08:09:30.461Z,0.82
2022-12-29T08:11:58.588Z,1.27
2022-12-29T08:14:26.871Z,1.08
2022-12-29T08:16:55.028Z,1.38
2022-12-29T08:19:25.518Z,0.90
2022-12-29T08:21:54.777Z,1.45
2022-12-29T08:24:24.587Z,0.93
2022-12-29T08:26:52.834Z,1.25
2022-12-29T08:29:22.543Z,0.95
2022-12-29T08:31:51.042Z,1.08
2022-12-29T08:34:19.170Z,0.75
2022-12-29T08:36:47.468Z,0.63
2022-12-29T08:39:15.767Z,1.05
2022-12-29T08:41:45.352Z,1.50
2022-12-29T08:45:17.443Z,0.77
2022-12-29T08:48:09.460Z,0.70
2022-12-29T08:50:44.553Z,1.02
2022-12-29T08:53:17.563Z,1.13
2022-12-29T08:55:47.756Z,1.45
2022-12-29T09:00:57.435Z,0.32
2022-12-29T09:04:12.355Z,1.02
2022-12-29T09:06:27.842Z,0.52
2022-12-29T09:08:58.724Z,0.85
2022-12-29T09:11:28.793Z,1.10
2022-12-29T09:14:44.873Z,1.02
2022-12-29T09:20:48.647Z,1.35
2022-12-29T09:23:17.046Z,0.50
2022-12-29T09:25:45.764Z,1.05
2022-12-29T09:28:13.809Z,0.80
2022-12-29T09:30:46.895Z,1.55
2022-12-29T09:33:15.052Z,0.80
2022-12-29T09:35:44.630Z,1.13
2022-12-29T09:38:13.463Z,0.82
2022-12-29T09:40:42.606Z,1.08
2022-12-29T09:43:26.762Z,1.13
2022-12-29T09:46:05.506Z,0.80
2022-12-29T09:48:37.228Z,1.00
2022-12-29T09:51:11.295Z,1.35
2022-12-29T09:53:43.524Z,1.30
2022-12-29T09:56:17.499Z,0.47
2022-12-29T09:58:53.995Z,0.40
2022-12-29T10:01:32.596Z,1.25
2022-12-29T10:04:04.294Z,0.45
2022-12-29T10:07:03.717Z,1.25
2022-12-29T10:09:39.539Z,0.60
2022-12-29T10:12:23.586Z,0.77
2022-12-29T10:15:05.063Z,0.90
2022-12-29T10:17:45.640Z,0.45
2022-12-29T10:20:27.662Z,0.70
2022-12-29T10:23:14.492Z,1.30
2022-12-29T10:25:45.294Z,0.68
2022-12-29T10:28:21.604Z,1.25
2022-12-29T10:30:50.833Z,1.17
2022-12-29T10:33:25.575Z,0.83
2022-12-29T10:35:54.368Z,1.05
2022-12-29T10:38:31.107Z,1.02
2022-12-29T10:41:02.953Z,1.05
2022-12-29T10:43:33.592Z,1.20
2022-12-29T10:46:12.487Z,1.25
2022-12-29T10:48:48.938Z,0.73
2022-12-29T10:51:22.951Z,1.60
2022-12-29T10:53:58.753Z,1.42
2022-12-29T10:56:35.081Z,1.40
2022-12-29T10:59:13.448Z,1.05
2022-12-29T11:01:54.728Z,1.20
2022-12-29T11:04:38.174Z,0.82
2022-12-29T11:07:13.208Z,1.20
2022-12-29T11:09:46.934Z,0.65
2022-12-29T11:12:27.037Z,0.70
2022-12-29T11:15:23.550Z,0.52
2022-12-29T11:18:00.690Z,0.63
2022-12-29T11:20:38.858Z,0.73
2022-12-29T11:23:24.229Z,0.43
2022-12-29T11:26:09.527Z,0.65
2022-12-29T11:28:39.299Z,0.43
2022-12-29T11:31:11.716Z,0.22
2022-12-29T11:33:44.308Z,0.75
2022-12-29T11:36:19.158Z,0.68
2022-12-29T11:38:51.536Z,0.63
2022-12-29T11:41:26.598Z,0.73
2022-12-29T11:43:56.092Z,0.40
2022-12-29T11:46:33.800Z,0.68
2022-12-29T11:49:03.396Z,0.38
2022-12-29T11:51:55.128Z,0.40
2022-12-29T11:54:28.046Z,0.40
2022-12-29T11:57:06.373Z,0.50
2022-12-29T11:59:42.512Z,1.17
2022-12-29T12:02:29.136Z,0.30
2022-12-29T12:05:04.197Z,0.70
2022-12-29T12:07:42.723Z,0.38
2022-12-29T12:10:23.725Z,0.47
2022-12-29T12:13:04.769Z,0.43
2022-12-29T12:15:45.909Z,0.30
2022-12-29T12:18:21.209Z,0.82
2022-12-29T12:20:57.662Z,0.50
2022-12-29T12:24:11.163Z,0.47
2022-12-29T12:27:02.940Z,0.50
2022-12-29T12:29:55.255Z,0.30
2022-12-29T12:32:29.507Z,0.40
2022-12-29T12:35:00.936Z,0.43
2022-12-29T12:37:53.505Z,0.70
2022-12-29T12:40:53.347Z,0.57
2022-12-29T12:43:47.268Z,0.50
2022-12-29T12:46:34.055Z,0.45
2022-12-29T12:49:28.734Z,0.75
2022-12-29T12:52:06.996Z,0.70
2022-12-29T12:54:52.411Z,0.47
2022-12-29T12:57:40.041Z,0.90
2022-12-29T13:00:13.930Z,0.85
2022-12-29T13:03:02.156Z,0.77
2022-12-29T13:05:49.424Z,0.50
2022-12-29T13:08:51.279Z,0.68
2022-12-29T13:11:27.846Z,1.13
2022-12-29T13:14:18.358Z,0.77
2022-12-29T13:16:55.155Z,1.02
2022-12-29T13:19:32.575Z,0.95
2022-12-29T13:22:10.824Z,0.30
2022-12-29T13:24:56.219Z,0.95
2022-12-29T13:27:37.530Z,0.80
2022-12-29T13:30:18.020Z,0.45
2022-12-29T13:35:53.604Z,0.88
2022-12-29T13:38:32.086Z,0.85
2022-12-29T13:41:06.005Z,0.70
2022-12-29T13:43:36.769Z,0.50
2022-12-29T13:46:24.211Z,0.43
2022-12-29T13:48:55.731Z,0.57
2022-12-29T13:51:28.995Z,0.95
2022-12-29T13:54:06.095Z,0.52
2022-12-29T13:56:44.628Z,1.00
2022-12-29T13:59:22.032Z,0.40
2022-12-29T14:01:59.795Z,1.55
2022-12-29T14:04:34.327Z,1.13
2022-12-29T14:07:05.260Z,0.90
2022-12-29T14:09:49.569Z,1.23
2022-12-29T14:12:35.322Z,0.77
2022-12-29T14:15:31.887Z,1.25
2022-12-29T14:18:20.494Z,1.33
2022-12-29T14:20:56.657Z,1.95
2022-12-29T14:23:39.155Z,1.77
2022-12-29T14:26:19.347Z,1.73
2022-12-29T14:31:42.398Z,1.88
2022-12-29T14:34:51.788Z,1.50
2022-12-29T14:37:28.030Z,1.23
2022-12-29T14:40:19.968Z,2.40
2022-12-29T14:42:49.795Z,1.30
2022-12-29T14:45:29.795Z,1.25
2022-12-29T14:48:00.578Z,0.82
2022-12-29T14:50:41.323Z,1.30
2022-12-29T14:53:44.970Z,0.90
2022-12-29T14:56:14.669Z,1.13
2022-12-29T14:59:11.930Z,0.88
2022-12-29T15:01:45.734Z,1.30
2022-12-29T15:04:28.864Z,1.85
2022-12-29T15:07:06.800Z,1.30
2022-12-29T15:09:40.077Z,1.20
2022-12-29T15:12:23.572Z,1.67
2022-12-29T15:14:54.551Z,1.40
2022-12-29T15:17:28.334Z,0.80
2022-12-29T15:19:57.917Z,1.00
2022-12-29T15:22:29.012Z,1.25
2022-12-29T15:24:58.926Z,1.30
2022-12-29T15:27:29.109Z,1.35
2022-12-29T15:32:35.159Z,1.50
2022-12-29T15:35:25.608Z,1.40
2022-12-29T15:37:55.638Z,1.60
2022-12-29T15:40:32.180Z,1.30
2022-12-29T15:43:35.302Z,1.25
2022-12-29T15:46:06.836Z,0.80
2022-12-29T15:48:38.049Z,1.27
2022-12-29T15:51:14.009Z,1.63
2022-12-29T15:53:53.444Z,1.70
2022-12-29T15:56:29.044Z,1.90
2022-12-29T15:58:57.558Z,2.03
2022-12-29T16:01:29.946Z,1.67
2022-12-29T16:03:59.894Z,3.35
2022-12-29T16:06:33.563Z,3.35
2022-12-29T16:09:06.305Z,2.00
2022-12-29T16:11:38.081Z,3.03
2022-12-29T16:14:21.942Z,3.13
2022-12-29T16:16:53.195Z,2.60
2022-12-29T16:19:30.015Z,2.53
2022-12-29T16:22:04.127Z,1.60
2022-12-29T16:24:35.206Z,2.15
2022-12-29T16:27:10.532Z,1.77
2022-12-29T16:29:39.430Z,2.60
2022-12-29T16:32:38.735Z,4.15
2022-12-29T16:35:18.787Z,4.23
2022-12-29T16:37:47.663Z,3.00
2022-12-29T16:40:29.476Z,2.65
2022-12-29T16:42:59.424Z,2.50
2022-12-29T16:46:09.835Z,2.20
2022-12-29T16:48:49.016Z,2.30
2022-12-29T16:51:19.742Z,2.38
2022-12-29T16:53:52.774Z,2.50
2022-12-29T16:56:28.165Z,2.30
2022-12-29T16:59:06.139Z,2.00
2022-12-29T17:01:38.852Z,2.10
2022-12-29T17:04:11.289Z,2.83
2022-12-29T17:06:40.159Z,2.92
2022-12-29T17:09:20.193Z,4.20
2022-12-29T17:12:08.574Z,2.33
2022-12-29T17:14:45.919Z,2.25
2022-12-29T17:17:25.663Z,3.28
2022-12-29T17:20:02.623Z,2.65
2022-12-29T17:22:31.602Z,3.10
2022-12-29T17:25:02.803Z,2.40
2022-12-29T17:27:44.539Z,2.47
2022-12-29T17:30:19.773Z,2.50
2022-12-29T17:32:56.072Z,3.15
2022-12-29T17:35:25.493Z,3.05
2022-12-29T17:37:56.267Z,4.10
2022-12-29T17:40:31.041Z,3.42
2022-12-29T17:43:01.636Z,4.40
2022-12-29T17:45:32.085Z,5.97
2022-12-29T17:48:02.067Z,6.60
2022-12-29T17:50:33.948Z,3.63
2022-12-29T17:53:07.276Z,2.30
2022-12-29T17:55:38.924Z,1.73
2022-12-29T17:58:20.734Z,1.52
2022-12-29T18:01:00.175Z,1.20
2022-12-29T18:03:31.588Z,1.73
2022-12-29T18:06:00.442Z,2.75
2022-12-29T18:08:31.033Z,3.03
2022-12-29T18:11:04.677Z,3.42
2022-12-29T18:13:46.090Z,6.55
2022-12-29T18:16:15.605Z,5.22
2022-12-29T18:18:43.856Z,19.35
2022-12-29T18:21:18.441Z,2.53
2022-12-29T18:23:47.282Z,4.28
2022-12-29T18:26:23.978Z,3.25
2022-12-29T18:31:27.522Z,2.90
2022-12-29T18:33:58.080Z,3.08
2022-12-29T18:36:29.200Z,3.15
2022-12-29T18:38:59.995Z,3.55
2022-12-29T18:41:30.997Z,3.83
2022-12-29T18:44:01.692Z,3.55
2022-12-29T18:46:33.207Z,4.20
2022-12-29T18:49:02.069Z,4.07
2022-12-29T18:51:30.342Z,4.82
2022-12-29T18:54:03.129Z,3.40
2022-12-29T18:56:32.701Z,4.45
2022-12-29T18:59:04.943Z,3.67
2022-12-29T19:01:33.222Z,3.35
2022-12-29T19:04:01.841Z,4.05
2022-12-29T19:06:30.454Z,3.47
2022-12-29T19:09:01.422Z,4.82
2022-12-29T19:11:29.570Z,4.97
2022-12-29T19:13:58.099Z,4.47
2022-12-29T19:16:29.209Z,5.93
2022-12-29T19:19:09.426Z,4.05
2022-12-29T19:21:40.457Z,3.00
2022-12-29T19:24:09.346Z,3.13
2022-12-29T19:26:39.924Z,2.33
2022-12-29T19:29:15.323Z,2.13
2022-12-29T19:31:46.167Z,3.13
2022-12-29T19:34:16.263Z,29.88
2022-12-29T19:36:45.698Z,9.30
2022-12-29T19:39:24.216Z,15.70
2022-12-29T19:41:54.068Z,4.55
2022-12-29T19:44:26.903Z,5.93
2022-12-29T19:47:00.435Z,4.72
2022-12-29T19:49:29.073Z,3.10
2022-12-29T19:51:59.791Z,4.97
2022-12-29T19:54:28.160Z,4.90
2022-12-29T19:56:59.604Z,4.40
2022-12-29T19:59:27.959Z,4.88
2022-12-29T20:01:58.013Z,5.85
2022-12-29T20:06:54.587Z,8.30
2022-12-29T20:09:24.893Z,12.25
2022-12-29T20:11:55.631Z,17.17
2022-12-29T20:14:24.200Z,10.10
2022-12-29T20:17:10.003Z,5.10
2022-12-29T20:20:02.644Z,3.08
2022-12-29T20:22:30.880Z,3.38
2022-12-29T20:25:42.992Z,3.13
2022-12-29T20:27:56.121Z,3.28
2022-12-29T20:30:25.245Z,2.55
2022-12-29T20:32:53.435Z,3.83
2022-12-29T20:35:23.762Z,4.97
2022-12-29T20:37:52.740Z,5.97
2022-12-29T20:40:23.852Z,3.47
2022-12-29T20:43:02.738Z,3.10
2022-12-29T20:45:30.904Z,3.50
2022-12-29T20:47:58.978Z,4.15
2022-12-29T20:50:28.516Z,3.85
2022-12-29T20:52:56.881Z,3.70
2022-12-29T20:55:25.369Z,4.50
2022-12-29T20:58:23.282Z,3.38
2022-12-29T21:00:45.168Z,4.03
2022-12-29T21:03:19.689Z,3.53
2022-12-29T21:05:49.575Z,3.58
2022-12-29T21:08:18.141Z,3.00
2022-12-29T21:10:47.620Z,4.65
2022-12-29T21:13:16.847Z,5.20
2022-12-29T21:15:46.461Z,3.60
2022-12-29T21:18:16.675Z,4.18
2022-12-29T21:20:59.385Z,3.20
2022-12-29T21:23:29.989Z,3.08
2022-12-29T21:26:07.020Z,2.80
2022-12-29T21:28:39.576Z,2.72
2022-12-29T21:31:14.891Z,3.17
2022-12-29T21:33:43.741Z,3.17
2022-12-29T21:36:15.329Z,5.50
2022-12-29T21:38:44.827Z,4.90
2022-12-29T21:41:15.914Z,10.43
2022-12-29T21:44:03.958Z,16.95
2022-12-29T21:46:32.585Z,7.50
2022-12-29T21:49:01.335Z,11.80
2022-12-29T21:51:52.406Z,17.27
2022-12-29T21:54:40.937Z,9.98
2022-12-29T21:57:17.965Z,16.65
2022-12-29T22:00:06.723Z,14.45
2022-12-29T22:02:56.679Z,9.43
2022-12-29T22:05:42.893Z,10.27
2022-12-29T22:08:33.306Z,11.98
2022-12-29T22:11:18.886Z,9.38
2022-12-29T22:13:47.570Z,6.88
2022-12-29T22:16:18.762Z,9.98
2022-12-29T22:18:48.208Z,7.78
2022-12-29T22:21:17.046Z,7.88
2022-12-29T22:23:50.387Z,11.25
2022-12-29T22:26:19.437Z,6.80
2022-12-29T22:31:40.519Z,4.80
2022-12-29T22:34:09.067Z,5.38
2022-12-29T22:36:43.166Z,6.22
2022-12-29T22:39:14.807Z,5.10
2022-12-29T22:41:43.541Z,4.35
2022-12-29T22:44:12.451Z,5.03
2022-12-29T22:46:42.470Z,3.00
2022-12-29T22:49:12.196Z,4.75
2022-12-29T22:51:45.041Z,4.25
2022-12-29T22:54:22.081Z,3.55
2022-12-29T22:59:53.808Z,2.25
2022-12-29T23:02:41.321Z,3.20
2022-12-29T23:05:34.848Z,3.33
2022-12-29T23:08:47.461Z,1.65
2022-12-29T23:11:21.758Z,1.75
2022-12-29T23:13:50.368Z,2.13
2022-12-29T23:16:19.206Z,1.73
2022-12-29T23:19:12.014Z,1.77
2022-12-29T23:22:05.228Z,1.02
2022-12-29T23:24:36.507Z,0.95
2022-12-29T23:27:10.085Z,2.25
2022-12-29T23:29:41.355Z,1.75
2022-12-29T23:32:10.119Z,1.85
2022-12-29T23:34:45.122Z,1.38
2022-12-29T23:37:14.500Z,1.30
2022-12-29T23:39:43.060Z,1.40
2022-12-29T23:42:15.091Z,1.40
2022-12-29T23:44:54.377Z,1.35
2022-12-29T23:47:31.894Z,1.25
2022-12-29T23:50:00.771Z,1.20
2022-12-29T23:52:29.108Z,1.05
2022-12-29T23:55:03.062Z,1.20
2022-12-29T23:57:52.908Z,0.80
